createdAt,value
2023-02-02T00:01:59.089Z,97780.50
2023-02-02T00:04:30.266Z,97758.03
2023-02-02T00:06:59.749Z,97762.09
2023-02-02T00:09:32.000Z,97769.69
2023-02-02T00:12:03.094Z,97780.97
2023-02-02T00:14:31.708Z,97774.75
2023-02-02T00:17:00.277Z,97768.00
2023-02-02T00:19:31.638Z,97774.38
2023-02-02T00:22:00.450Z,97772.31
2023-02-02T00:24:29.411Z,97790.69
2023-02-02T00:27:01.680Z,97768.38
2023-02-02T00:29:32.632Z,97791.22
2023-02-02T00:32:01.305Z,97780.34
2023-02-02T00:34:30.120Z,97791.72
2023-02-02T00:36:58.619Z,97777.50
2023-02-02T00:39:27.711Z,97780.50
2023-02-02T00:41:57.159Z,97805.53
2023-02-02T00:44:44.507Z,97782.81
2023-02-02T00:47:13.146Z,97780.34
2023-02-02T00:49:41.687Z,97783.41
2023-02-02T00:52:10.217Z,97793.91
2023-02-02T00:54:38.714Z,97786.69
2023-02-02T00:57:08.011Z,97792.91
2023-02-02T00:59:37.817Z,97808.72
2023-02-02T01:02:06.821Z,97802.06
2023-02-02T01:04:36.208Z,97806.25
2023-02-02T01:07:04.898Z,97808.22
2023-02-02T01:09:33.418Z,97807.13
2023-02-02T01:12:01.963Z,97799.97
2023-02-02T01:14:30.583Z,97802.97
2023-02-02T01:17:00.541Z,97813.81
2023-02-02T01:19:29.120Z,97817.91
2023-02-02T01:21:57.721Z,97826.41
2023-02-02T01:24:26.561Z,97823.56
2023-02-02T01:26:55.102Z,97837.09
2023-02-02T01:29:23.885Z,97835.38
2023-02-02T01:31:53.457Z,97849.03
2023-02-02T01:34:23.692Z,97848.06
2023-02-02T01:36:52.251Z,97852.41
2023-02-02T01:39:21.680Z,97854.31
2023-02-02T01:41:50.478Z,97872.09
2023-02-02T01:45:28.912Z,97874.44
2023-02-02T01:48:02.157Z,97882.94
2023-02-02T01:50:35.808Z,97900.16
2023-02-02T01:53:08.744Z,97902.28
2023-02-02T01:55:42.392Z,97898.41
2023-02-02T01:58:19.501Z,97902.00
2023-02-02T02:00:48.314Z,97895.31
2023-02-02T02:03:25.155Z,97891.28
2023-02-02T02:06:00.330Z,97894.78
2023-02-02T02:08:36.359Z,97902.81
2023-02-02T02:11:05.490Z,97899.59
2023-02-02T02:13:55.567Z,97932.50
2023-02-02T02:16:37.660Z,97931.66
2023-02-02T02:19:28.948Z,97883.44
2023-02-02T02:22:26.433Z,97921.53
2023-02-02T02:26:02.176Z,97926.53
2023-02-02T02:29:14.915Z,97945.91
2023-02-02T02:32:06.926Z,97941.03
2023-02-02T02:34:52.616Z,97947.53
2023-02-02T02:37:34.700Z,97946.69
2023-02-02T02:40:12.756Z,97946.69
2023-02-02T02:42:54.931Z,97960.38
2023-02-02T02:45:27.337Z,97957.69
2023-02-02T02:47:59.530Z,97959.59
2023-02-02T02:50:29.026Z,97956.91
2023-02-02T02:53:06.930Z,97953.13
2023-02-02T02:55:48.691Z,97943.25
2023-02-02T02:58:29.301Z,97956.16
2023-02-02T03:01:10.164Z,97950.00
2023-02-02T03:04:00.668Z,97941.44
2023-02-02T03:06:40.699Z,97942.78
2023-02-02T03:09:14.545Z,97947.31
2023-02-02T03:11:43.441Z,97951.63
2023-02-02T03:14:12.650Z,97951.91
2023-02-02T03:16:41.324Z,97952.19
2023-02-02T03:19:11.453Z,97959.16
2023-02-02T03:21:39.977Z,97961.84
2023-02-02T03:24:09.157Z,97967.25
2023-02-02T03:26:38.792Z,97970.44
2023-02-02T03:29:07.947Z,97975.81
2023-02-02T03:31:36.806Z,97972.06
2023-02-02T03:34:05.391Z,97972.09
2023-02-02T03:36:35.298Z,97968.34
2023-02-02T03:39:03.893Z,97972.91
2023-02-02T03:41:32.561Z,97974.78
2023-02-02T03:44:01.223Z,97967.81
2023-02-02T03:46:29.759Z,97972.59
2023-02-02T03:48:59.273Z,97977.44
2023-02-02T03:51:29.697Z,97984.13
2023-02-02T03:53:59.597Z,97991.66
2023-02-02T03:56:28.155Z,97993.75
2023-02-02T03:58:56.783Z,97997.84
2023-02-02T04:01:30.232Z,97998.63
2023-02-02T04:04:00.386Z,97995.44
2023-02-02T04:06:29.034Z,98002.91
2023-02-02T04:08:59.156Z,98006.16
2023-02-02T04:11:27.754Z,98005.88
2023-02-02T04:13:56.312Z,98001.84
2023-02-02T04:16:25.047Z,98009.09
2023-02-02T04:18:53.585Z,97999.16
2023-02-02T04:21:22.150Z,98008.03
2023-02-02T04:23:50.770Z,98007.00
2023-02-02T04:26:20.802Z,98010.97
2023-02-02T04:28:49.290Z,98012.06
2023-02-02T04:31:18.201Z,98007.28
2023-02-02T04:33:46.722Z,98005.13
2023-02-02T04:36:15.490Z,98002.16
2023-02-02T04:38:43.966Z,98013.38
2023-02-02T04:41:14.821Z,98002.69
2023-02-02T04:43:44.741Z,98005.66
2023-02-02T04:46:14.136Z,98011.03
2023-02-02T04:48:43.609Z,98008.34
2023-02-02T04:51:15.377Z,98009.16
2023-02-02T04:53:44.351Z,98009.66
2023-02-02T04:56:16.329Z,98005.66
2023-02-02T04:58:47.381Z,98016.97
2023-02-02T05:01:19.383Z,98019.09
2023-02-02T05:03:49.440Z,98013.72
2023-02-02T05:06:19.309Z,98012.91
2023-02-02T05:08:49.926Z,98024.41
2023-02-02T05:11:21.242Z,98030.63
2023-02-02T05:13:54.558Z,98045.34
2023-02-02T05:16:27.169Z,98033.56
2023-02-02T05:18:59.563Z,98042.91
2023-02-02T05:21:28.209Z,98046.16
2023-02-02T05:23:56.976Z,98046.72
2023-02-02T05:26:28.464Z,98035.72
2023-02-02T05:28:58.725Z,98048.59
2023-02-02T05:31:27.277Z,98045.38
2023-02-02T05:33:55.805Z,98046.72
2023-02-02T05:36:24.371Z,98044.59
2023-02-02T05:38:52.990Z,98046.72
2023-02-02T05:41:21.699Z,98056.13
2023-02-02T05:43:50.253Z,98050.47
2023-02-02T05:46:20.306Z,98060.94
2023-02-02T05:48:48.899Z,98061.50
2023-02-02T05:51:23.421Z,98063.69
2023-02-02T05:53:52.113Z,98064.75
2023-02-02T05:56:20.716Z,98059.38
2023-02-02T05:58:49.939Z,98066.09
2023-02-02T06:01:21.377Z,98067.69
2023-02-02T06:03:50.249Z,98067.94
2023-02-02T06:06:18.974Z,98062.84
2023-02-02T06:08:47.507Z,98059.09
2023-02-02T06:11:18.985Z,98065.53
2023-02-02T06:13:47.848Z,98073.34
2023-02-02T06:16:16.477Z,98074.66
2023-02-02T06:18:46.997Z,98073.84
2023-02-02T06:21:15.868Z,98067.38
2023-02-02T06:23:45.870Z,98058.81
2023-02-02T06:26:14.951Z,98062.53
2023-02-02T06:28:44.409Z,98064.47
2023-02-02T06:31:13.462Z,98062.00
2023-02-02T06:33:42.064Z,98056.66
2023-02-02T06:36:12.080Z,98059.31
2023-02-02T06:38:41.074Z,98067.91
2023-02-02T06:41:09.749Z,98068.47
2023-02-02T06:43:38.213Z,98071.16
2023-02-02T06:46:06.835Z,98076.78
2023-02-02T06:48:35.389Z,98081.09
2023-02-02T06:51:05.551Z,98082.16
2023-02-02T06:53:36.473Z,98080.81
2023-02-02T06:56:08.873Z,98093.47
2023-02-02T06:58:37.546Z,98091.03
2023-02-02T07:01:09.345Z,98091.84
2023-02-02T07:03:38.931Z,98084.59
2023-02-02T07:06:17.757Z,98081.13
2023-02-02T07:09:00.924Z,98087.50
2023-02-02T07:11:35.549Z,98086.75
2023-02-02T07:14:06.437Z,98085.44
2023-02-02T07:16:35.125Z,98092.97
2023-02-02T07:19:04.177Z,98095.34
2023-02-02T07:21:36.219Z,98100.22
2023-02-02T07:24:08.586Z,98102.09
2023-02-02T07:26:38.119Z,98094.84
2023-02-02T07:29:07.094Z,98099.13
2023-02-02T07:31:36.920Z,98090.84
2023-02-02T07:34:05.785Z,98094.53
2023-02-02T07:36:34.527Z,98098.88
2023-02-02T07:39:05.092Z,98097.56
2023-02-02T07:41:37.741Z,98099.44
2023-02-02T07:44:16.569Z,98102.97
2023-02-02T07:46:46.782Z,98099.19
2023-02-02T07:49:17.778Z,98093.84
2023-02-02T07:51:49.177Z,98106.41
2023-02-02T07:54:17.708Z,98106.94
2023-02-02T07:56:48.024Z,98108.63
2023-02-02T07:59:17.952Z,98114.00
2023-02-02T08:01:46.876Z,98115.63
2023-02-02T08:04:15.729Z,98116.66
2023-02-02T08:06:44.503Z,98120.44
2023-02-02T08:09:13.275Z,98120.72
2023-02-02T08:11:41.798Z,98118.59
2023-02-02T08:14:14.993Z,98121.78
2023-02-02T08:16:43.676Z,98120.44
2023-02-02T08:19:13.263Z,98117.50
2023-02-02T08:21:42.011Z,98124.22
2023-02-02T08:24:11.240Z,98123.41
2023-02-02T08:26:40.418Z,98132.06
2023-02-02T08:29:17.153Z,98120.47
2023-02-02T08:31:46.916Z,98127.19
2023-02-02T08:34:15.608Z,98130.41
2023-02-02T08:36:44.232Z,98128.28
2023-02-02T08:39:14.448Z,98129.34
2023-02-02T08:41:43.002Z,98131.53
2023-02-02T08:44:16.815Z,98132.06
2023-02-02T08:46:45.505Z,98128.03
2023-02-02T08:49:15.083Z,98134.47
2023-02-02T08:51:43.742Z,98134.50
2023-02-02T08:54:12.688Z,98139.06
2023-02-02T08:56:41.221Z,98139.63
2023-02-02T08:59:09.969Z,98139.34
2023-02-02T09:01:39.996Z,98133.69
2023-02-02T09:04:15.751Z,98142.84
2023-02-02T09:06:45.605Z,98144.19
2023-02-02T09:09:17.161Z,98149.28
2023-02-02T09:11:46.011Z,98146.88
2023-02-02T09:14:16.086Z,98143.91
2023-02-02T09:16:46.697Z,98147.13
2023-02-02T09:19:15.367Z,98145.00
2023-02-02T09:21:44.097Z,98142.28
2023-02-02T09:24:15.107Z,98141.78
2023-02-02T09:26:45.433Z,98153.59
2023-02-02T09:29:17.871Z,98158.19
2023-02-02T09:31:47.953Z,98165.44
2023-02-02T09:34:17.197Z,98160.56
2023-02-02T09:36:46.519Z,98159.22
2023-02-02T09:39:16.805Z,98158.44
2023-02-02T09:42:16.076Z,98152.81
2023-02-02T09:45:14.733Z,98164.63
2023-02-02T09:48:08.986Z,98164.34
2023-02-02T09:50:50.226Z,98165.97
2023-02-02T09:53:53.085Z,98170.53
2023-02-02T09:56:28.517Z,98171.09
2023-02-02T09:59:13.656Z,98172.69
2023-02-02T10:01:53.882Z,98174.03
2023-02-02T10:04:33.130Z,98163.81
2023-02-02T10:07:11.725Z,98169.75
2023-02-02T10:09:48.200Z,98167.84
2023-02-02T10:12:30.061Z,98162.19
2023-02-02T10:15:13.047Z,98169.72
2023-02-02T10:17:49.785Z,98174.81
2023-02-02T10:20:40.232Z,98169.16
2023-02-02T10:23:23.692Z,98173.19
2023-02-02T10:26:02.487Z,98165.63
2023-02-02T10:28:45.517Z,98159.72
2023-02-02T10:31:33.309Z,98164.31
2023-02-02T10:34:15.376Z,98167.56
2023-02-02T10:37:04.166Z,98158.38
2023-02-02T10:39:49.417Z,98159.16
2023-02-02T10:42:34.952Z,98158.66
2023-02-02T10:45:14.862Z,98160.56
2023-02-02T10:47:44.021Z,98159.25
2023-02-02T10:50:20.414Z,98160.31
2023-02-02T10:52:55.978Z,98165.16
2023-02-02T10:55:38.324Z,98161.91
2023-02-02T10:58:22.606Z,98164.88
2023-02-02T11:00:55.751Z,98155.97
2023-02-02T11:03:29.267Z,98155.19
2023-02-02T11:06:18.533Z,98152.78
2023-02-02T11:08:56.602Z,98154.66
2023-02-02T11:11:30.444Z,98152.78
2023-02-02T11:14:04.580Z,98157.63
2023-02-02T11:16:42.538Z,98155.75
2023-02-02T11:19:30.568Z,98158.16
2023-02-02T11:22:02.341Z,98158.44
2023-02-02T11:24:42.409Z,98148.72
2023-02-02T11:27:18.544Z,98154.13
2023-02-02T11:29:51.893Z,98154.38
2023-02-02T11:32:28.492Z,98149.28
2023-02-02T11:35:21.538Z,98147.13
2023-02-02T11:38:10.292Z,98147.13
2023-02-02T11:40:44.876Z,98147.94
2023-02-02T11:43:21.495Z,98144.44
2023-02-02T11:45:58.101Z,98144.16
2023-02-02T11:48:33.389Z,98146.06
2023-02-02T11:51:03.251Z,98139.31
2023-02-02T11:53:35.192Z,98154.66
2023-02-02T11:56:11.439Z,98155.47
2023-02-02T11:58:50.394Z,98151.44
2023-02-02T12:01:27.054Z,98154.13
2023-02-02T12:03:58.427Z,98140.97
2023-02-02T12:06:35.982Z,98140.97
2023-02-02T12:09:14.347Z,98143.63
2023-02-02T12:12:02.299Z,98134.50
2023-02-02T12:14:41.893Z,98128.00
2023-02-02T12:17:35.267Z,98131.78
2023-02-02T12:20:30.586Z,98133.13
2023-02-02T12:23:16.392Z,98135.31
2023-02-02T12:26:13.694Z,98132.06
2023-02-02T12:29:09.579Z,98129.91
2023-02-02T12:31:57.373Z,98137.69
2023-02-02T12:34:41.842Z,98135.03
2023-02-02T12:37:27.182Z,98131.53
2023-02-02T12:40:22.226Z,98129.09
2023-02-02T12:43:08.200Z,98129.66
2023-02-02T12:46:23.209Z,98140.16
2023-02-02T12:49:20.208Z,98132.88
2023-02-02T12:52:18.533Z,98137.44
2023-02-02T12:55:05.541Z,98134.75
2023-02-02T12:57:52.039Z,98144.72
2023-02-02T13:01:10.270Z,98145.53
2023-02-02T13:03:59.546Z,98144.97
2023-02-02T13:07:07.025Z,98146.34
2023-02-02T13:09:44.109Z,98152.78
2023-02-02T13:12:17.471Z,98143.63
2023-02-02T13:14:51.301Z,98146.06
2023-02-02T13:17:30.483Z,98156.28
2023-02-02T13:20:06.372Z,98157.34
2023-02-02T13:22:41.343Z,98153.06
2023-02-02T13:25:20.997Z,98155.22
2023-02-02T13:27:50.827Z,98157.91
2023-02-02T13:30:32.252Z,98164.63
2023-02-02T13:33:12.643Z,98156.00
2023-02-02T13:35:52.562Z,98160.59
2023-02-02T13:38:26.175Z,98164.34
2023-02-02T13:40:58.432Z,98170.50
2023-02-02T13:43:40.746Z,98176.97
2023-02-02T13:46:30.562Z,98187.41
2023-02-02T13:49:10.842Z,98183.66
2023-02-02T13:51:53.892Z,98189.84
2023-02-02T13:55:28.627Z,98194.38
2023-02-02T13:58:38.455Z,98202.38
2023-02-02T14:01:12.116Z,98203.44
2023-02-02T14:03:43.940Z,98217.31
2023-02-02T14:06:17.886Z,98217.63
2023-02-02T14:08:52.323Z,98216.56
2023-02-02T14:11:32.057Z,98219.50
2023-02-02T14:14:29.100Z,98215.13
2023-02-02T14:16:57.785Z,98223.63
2023-02-02T14:19:52.377Z,98236.16
2023-02-02T14:22:50.900Z,98238.16
2023-02-02T14:26:08.415Z,98239.91
2023-02-02T14:28:50.784Z,98244.66
2023-02-02T14:31:54.153Z,98251.38
2023-02-02T14:34:33.654Z,98257.31
2023-02-02T14:37:36.973Z,98274.34
2023-02-02T14:40:33.836Z,98272.03
2023-02-02T14:43:37.318Z,98284.84
2023-02-02T14:46:33.880Z,98295.69
2023-02-02T14:49:18.253Z,98297.13
2023-02-02T14:51:56.412Z,98300.16
2023-02-02T14:54:32.397Z,98309.50
2023-02-02T14:57:21.357Z,98304.94
2023-02-02T14:59:51.664Z,98308.94
2023-02-02T15:02:24.536Z,98311.97
2023-02-02T15:04:53.319Z,98323.75
2023-02-02T15:07:54.933Z,98315.19
2023-02-02T15:11:22.240Z,98321.06
2023-02-02T15:14:06.923Z,98326.41
2023-02-02T15:16:41.013Z,98330.34
2023-02-02T15:19:28.667Z,98331.75
2023-02-02T15:22:04.200Z,98332.28
2023-02-02T15:24:36.726Z,98332.63
2023-02-02T15:27:08.927Z,98337.97
2023-02-02T15:29:47.035Z,98336.47
2023-02-02T15:32:20.475Z,98348.97
2023-02-02T15:34:54.491Z,98342.97
2023-02-02T15:37:31.794Z,98352.88
2023-02-02T15:40:04.500Z,98357.13
2023-02-02T15:42:54.855Z,98365.97
2023-02-02T15:45:43.510Z,98365.75
2023-02-02T15:48:23.172Z,98368.53
2023-02-02T15:50:55.725Z,98368.63
2023-02-02T15:53:28.225Z,98371.84
2023-02-02T15:55:58.157Z,98370.75
2023-02-02T15:58:31.908Z,98383.09
2023-02-02T16:01:06.090Z,98388.22
2023-02-02T16:03:48.103Z,98387.91
2023-02-02T16:06:18.279Z,98392.91
2023-02-02T16:08:47.415Z,98405.03
2023-02-02T16:11:20.107Z,98405.59
2023-02-02T16:14:02.412Z,98411.19
2023-02-02T16:16:35.241Z,98412.19
2023-02-02T16:19:13.150Z,98417.03
2023-02-02T16:21:49.252Z,98430.69
2023-02-02T16:24:25.301Z,98430.13
2023-02-02T16:26:58.612Z,98435.31
2023-02-02T16:29:28.451Z,98439.91
2023-02-02T16:31:58.845Z,98452.72
2023-02-02T16:34:47.502Z,98465.00
2023-02-02T16:37:23.038Z,98465.03
2023-02-02T16:39:51.611Z,98470.09
2023-02-02T16:42:30.041Z,98481.47
2023-02-02T16:45:00.334Z,98478.53
2023-02-02T16:47:40.506Z,98486.00
2023-02-02T16:50:30.684Z,98491.28
2023-02-02T16:53:03.774Z,98502.19
2023-02-02T16:55:50.639Z,98506.78
2023-02-02T16:58:24.510Z,98510.03
2023-02-02T17:01:15.001Z,98513.25
2023-02-02T17:03:54.503Z,98527.13
2023-02-02T17:06:50.132Z,98524.19
2023-02-02T17:09:34.827Z,98529.63
2023-02-02T17:12:33.104Z,98539.31
2023-02-02T17:15:25.327Z,98541.69
2023-02-02T17:17:54.212Z,98546.50
2023-02-02T17:20:24.933Z,98557.00
2023-02-02T17:22:59.416Z,98560.38
2023-02-02T17:25:34.047Z,98557.75
2023-02-02T17:28:04.435Z,98565.00
2023-02-02T17:30:33.326Z,98567.28
2023-02-02T17:33:03.129Z,98581.69
2023-02-02T17:35:51.599Z,98581.19
2023-02-02T17:38:21.830Z,98578.88
2023-02-02T17:40:51.891Z,98582.88
2023-02-02T17:43:20.426Z,98588.13
2023-02-02T17:45:49.221Z,98589.72
2023-02-02T17:48:18.717Z,98595.66
2023-02-02T17:50:49.135Z,98594.47
2023-02-02T17:53:21.395Z,98596.63
2023-02-02T17:55:53.351Z,98606.09
2023-02-02T17:58:21.980Z,98610.53
2023-02-02T18:00:58.898Z,98617.16
2023-02-02T18:03:33.719Z,98613.84
2023-02-02T18:06:04.835Z,98625.34
2023-02-02T18:08:34.749Z,98623.47
2023-02-02T18:11:03.999Z,98627.19
2023-02-02T18:13:33.227Z,98631.03
2023-02-02T18:16:01.991Z,98629.88
2023-02-02T18:18:30.702Z,98635.81
2023-02-02T18:20:59.277Z,98637.56
2023-02-02T18:23:30.115Z,98643.75
2023-02-02T18:26:08.880Z,98643.81
2023-02-02T18:28:39.554Z,98641.94
2023-02-02T18:31:13.531Z,98647.00
2023-02-02T18:33:42.921Z,98646.81
2023-02-02T18:36:14.996Z,98642.78
2023-02-02T18:38:46.291Z,98647.97
2023-02-02T18:41:16.951Z,98645.03
2023-02-02T18:43:46.274Z,98643.44
2023-02-02T18:46:17.527Z,98649.38
2023-02-02T18:48:46.238Z,98642.38
2023-02-02T18:51:18.013Z,98645.13
2023-02-02T18:53:49.196Z,98658.47
2023-02-02T18:56:18.190Z,98654.56
2023-02-02T18:58:46.851Z,98662.31
2023-02-02T19:01:19.064Z,98664.16
2023-02-02T19:03:51.348Z,98661.91
2023-02-02T19:06:39.074Z,98660.50
2023-02-02T19:09:10.345Z,98660.03
2023-02-02T19:11:43.985Z,98658.63
2023-02-02T19:14:16.114Z,98663.63
2023-02-02T19:16:46.476Z,98661.56
2023-02-02T19:19:25.273Z,98662.38
2023-02-02T19:21:58.196Z,98665.88
2023-02-02T19:24:35.796Z,98669.59
2023-02-02T19:27:15.771Z,98680.59
2023-02-02T19:29:46.176Z,98669.69
2023-02-02T19:32:21.582Z,98669.19
2023-02-02T19:34:52.867Z,98670.47
2023-02-02T19:37:26.726Z,98667.63
2023-02-02T19:40:08.899Z,98667.94
2023-02-02T19:42:44.589Z,98658.53
2023-02-02T19:45:24.847Z,98663.66
2023-02-02T19:47:57.150Z,98672.06
2023-02-02T19:50:29.453Z,98669.19
2023-02-02T19:52:58.305Z,98673.47
2023-02-02T19:55:35.967Z,98677.53
2023-02-02T19:58:20.566Z,98681.88
2023-02-02T20:00:51.390Z,98685.06
2023-02-02T20:03:23.971Z,98681.28
2023-02-02T20:05:55.063Z,98684.28
2023-02-02T20:08:27.271Z,98684.91
2023-02-02T20:11:01.345Z,98681.19
2023-02-02T20:13:43.395Z,98684.38
2023-02-02T20:16:19.087Z,98686.81
2023-02-02T20:18:53.779Z,98690.16
2023-02-02T20:21:37.492Z,98696.47
2023-02-02T20:24:19.402Z,98696.41
2023-02-02T20:26:51.124Z,98695.41
2023-02-02T20:29:23.896Z,98692.22
2023-02-02T20:31:55.627Z,98694.22
2023-02-02T20:34:27.936Z,98684.28
2023-02-02T20:37:03.114Z,98691.38
2023-02-02T20:39:38.298Z,98698.16
2023-02-02T20:42:08.963Z,98693.66
2023-02-02T20:44:37.715Z,98692.84
2023-02-02T20:47:08.111Z,98687.81
2023-02-02T20:49:40.303Z,98687.72
2023-02-02T20:52:15.282Z,98677.84
2023-02-02T20:54:44.057Z,98677.84
2023-02-02T20:57:14.400Z,98684.03
2023-02-02T20:59:43.055Z,98682.72
2023-02-02T21:02:19.203Z,98674.59
2023-02-02T21:04:49.418Z,98676.56
2023-02-02T21:07:21.386Z,98681.50
2023-02-02T21:09:52.111Z,98677.91
2023-02-02T21:12:25.440Z,98675.09
2023-02-02T21:14:55.066Z,98686.09
2023-02-02T21:17:24.001Z,98676.75
2023-02-02T21:19:52.654Z,98681.03
2023-02-02T21:22:21.532Z,98690.50
2023-02-02T21:24:50.460Z,98693.34
2023-02-02T21:27:19.302Z,98696.91
2023-02-02T21:29:49.267Z,98700.66
2023-02-02T21:32:18.055Z,98702.28
2023-02-02T21:34:46.654Z,98695.78
2023-02-02T21:37:17.091Z,98702.69
2023-02-02T21:39:51.212Z,98701.53
2023-02-02T21:42:22.680Z,98706.03
2023-02-02T21:44:58.086Z,98709.22
2023-02-02T21:47:34.897Z,98706.72
2023-02-02T21:50:16.373Z,98711.09
2023-02-02T21:52:45.354Z,98706.03
2023-02-02T21:55:36.807Z,98706.53
2023-02-02T21:58:20.726Z,98696.34
2023-02-02T22:00:51.229Z,98699.53
2023-02-02T22:03:35.523Z,98699.97
2023-02-02T22:06:24.675Z,98697.78
2023-02-02T22:08:58.281Z,98694.84
2023-02-02T22:11:37.078Z,98693.28
2023-02-02T22:14:19.969Z,98692.78
2023-02-02T22:16:54.152Z,98693.97
2023-02-02T22:19:34.045Z,98703.59
2023-02-02T22:22:15.818Z,98693.91
2023-02-02T22:24:47.369Z,98698.72
2023-02-02T22:27:23.399Z,98689.78
2023-02-02T22:30:07.740Z,98690.09
2023-02-02T22:32:37.779Z,98687.72
2023-02-02T22:35:06.756Z,98688.66
2023-02-02T22:37:35.347Z,98684.91
2023-02-02T22:40:04.023Z,98682.53
2023-02-02T22:42:32.626Z,98683.38
2023-02-02T22:45:01.287Z,98684.69
2023-02-02T22:47:29.874Z,98678.25
2023-02-02T22:49:59.902Z,98681.44
2023-02-02T22:52:28.572Z,98682.00
2023-02-02T22:54:57.110Z,98679.31
2023-02-02T22:57:25.673Z,98684.13
2023-02-02T22:59:54.167Z,98679.53
2023-02-02T23:02:22.910Z,98681.69
2023-02-02T23:04:51.488Z,98678.84
2023-02-02T23:07:21.333Z,98677.91
2023-02-02T23:09:49.876Z,98679.31
2023-02-02T23:12:18.436Z,98673.13
2023-02-02T23:14:47.113Z,98676.31
2023-02-02T23:17:15.743Z,98672.09
2023-02-02T23:19:44.348Z,98673.19
2023-02-02T23:22:13.024Z,98681.00
2023-02-02T23:24:44.438Z,98687.66
2023-02-02T23:27:13.427Z,98690.16
2023-02-02T23:29:42.017Z,98689.84
2023-02-02T23:32:10.539Z,98693.03
2023-02-02T23:34:39.115Z,98695.22
2023-02-02T23:37:07.605Z,98686.13
2023-02-02T23:39:36.239Z,98691.22
2023-02-02T23:42:06.316Z,98701.41
2023-02-02T23:44:34.801Z,98690.16
2023-02-02T23:47:03.864Z,98695.19
2023-02-02T23:49:33.839Z,98695.53
2023-02-02T23:52:02.521Z,98690.28
2023-02-02T23:54:32.489Z,98683.06
2023-02-02T23:57:01.275Z,98690.84
2023-02-02T23:59:31.211Z,98680.03
